createdAt,value
2019-06-27T00:01:48.967Z,8.13
2019-06-27T00:04:17.743Z,7.30
2019-06-27T00:06:46.459Z,8.73
2019-06-27T00:09:16.209Z,7.00
2019-06-27T00:11:44.949Z,6.77
2019-06-27T00:14:13.640Z,6.93
2019-06-27T00:16:42.392Z,6.50
2019-06-27T00:19:11.088Z,6.27
2019-06-27T00:21:39.850Z,7.30
2019-06-27T00:24:08.553Z,5.53
2019-06-27T00:26:37.639Z,6.07
2019-06-27T00:29:06.520Z,7.03
2019-06-27T00:31:35.299Z,7.00
2019-06-27T00:34:03.972Z,7.40
2019-06-27T00:36:32.761Z,6.27
2019-06-27T00:39:01.540Z,6.57
2019-06-27T00:41:30.325Z,6.00
2019-06-27T00:43:59.143Z,6.63
2019-06-27T00:46:28.171Z,6.57
2019-06-27T00:48:57.209Z,7.37
2019-06-27T00:51:26.168Z,6.53
2019-06-27T00:53:54.912Z,5.37
2019-06-27T00:56:23.855Z,6.33
2019-06-27T00:58:52.885Z,6.10
2019-06-27T01:01:21.885Z,4.63
2019-06-27T01:03:50.561Z,5.90
2019-06-27T01:06:19.565Z,6.40
2019-06-27T01:08:48.336Z,6.60
2019-06-27T01:11:17.148Z,6.17
2019-06-27T01:13:46.107Z,5.80
2019-06-27T01:16:14.915Z,6.87
2019-06-27T01:18:43.665Z,5.60
2019-06-27T01:21:12.672Z,6.37
2019-06-27T01:23:44.238Z,4.67
2019-06-27T01:26:12.446Z,5.40
2019-06-27T01:28:41.199Z,10.70
2019-06-27T01:31:09.863Z,5.87
2019-06-27T01:33:38.560Z,5.47
2019-06-27T01:36:07.296Z,5.97
2019-06-27T01:38:36.251Z,5.67
2019-06-27T01:41:05.070Z,5.50
2019-06-27T01:43:33.982Z,6.27
2019-06-27T01:46:02.744Z,6.10
2019-06-27T01:48:31.683Z,4.87
2019-06-27T01:51:00.689Z,5.67
2019-06-27T01:53:29.377Z,4.43
2019-06-27T01:55:58.407Z,4.77
2019-06-27T01:58:27.187Z,4.70
2019-06-27T02:00:55.876Z,5.47
2019-06-27T02:03:24.637Z,5.37
2019-06-27T02:05:53.341Z,5.93
2019-06-27T02:08:22.090Z,4.97
2019-06-27T02:10:50.799Z,6.37
2019-06-27T02:13:19.543Z,6.37
2019-06-27T02:15:48.361Z,6.50
2019-06-27T02:18:17.149Z,5.77
2019-06-27T02:20:46.180Z,4.57
2019-06-27T02:23:16.019Z,5.70
2019-06-27T02:25:44.900Z,5.10
2019-06-27T02:28:13.566Z,5.00
2019-06-27T02:30:43.263Z,3.90
2019-06-27T02:33:12.200Z,6.23
2019-06-27T02:35:41.396Z,5.97
2019-06-27T02:38:10.206Z,5.83
2019-06-27T02:40:39.042Z,5.07
2019-06-27T02:43:07.726Z,4.80
2019-06-27T02:45:36.526Z,4.70
2019-06-27T02:48:05.500Z,5.30
2019-06-27T02:50:34.146Z,4.77
2019-06-27T02:53:02.978Z,5.83
2019-06-27T02:55:31.976Z,5.30
2019-06-27T02:58:00.640Z,4.67
2019-06-27T03:00:29.566Z,6.00
2019-06-27T03:02:58.352Z,5.73
2019-06-27T03:05:27.193Z,4.83
2019-06-27T03:07:55.962Z,4.33
2019-06-27T03:10:24.719Z,4.70
2019-06-27T03:12:53.779Z,5.77
2019-06-27T03:15:22.485Z,5.30
2019-06-27T03:17:51.143Z,4.73
2019-06-27T03:20:19.981Z,4.90
2019-06-27T03:22:48.677Z,5.60
2019-06-27T03:25:17.508Z,4.70
2019-06-27T03:27:46.569Z,4.57
2019-06-27T03:30:15.510Z,6.63
2019-06-27T03:32:44.319Z,5.63
2019-06-27T03:35:13.230Z,5.67
2019-06-27T03:37:41.975Z,5.40
2019-06-27T03:40:10.808Z,6.80
2019-06-27T03:42:39.831Z,6.20
2019-06-27T03:45:15.095Z,6.80
2019-06-27T03:47:40.068Z,6.80
2019-06-27T03:50:09.278Z,7.00
2019-06-27T03:52:38.281Z,6.87
2019-06-27T03:55:07.207Z,7.77
2019-06-27T03:57:35.884Z,6.33
2019-06-27T04:00:05.289Z,7.53
2019-06-27T04:02:34.083Z,6.30
2019-06-27T04:05:02.870Z,7.20
2019-06-27T04:07:31.820Z,6.17
2019-06-27T04:10:00.529Z,5.83
2019-06-27T04:12:29.310Z,7.40
2019-06-27T04:14:58.066Z,6.63
2019-06-27T04:17:26.827Z,6.03
2019-06-27T04:19:55.493Z,7.70
2019-06-27T04:22:24.582Z,6.57
2019-06-27T04:24:53.540Z,6.07
2019-06-27T04:27:22.309Z,6.40
2019-06-27T04:29:51.008Z,5.97
2019-06-27T04:32:20.027Z,6.10
2019-06-27T04:34:48.971Z,6.43
2019-06-27T04:37:18.066Z,6.63
2019-06-27T04:39:46.984Z,6.80
2019-06-27T04:42:15.773Z,7.07
2019-06-27T04:44:44.779Z,5.50
2019-06-27T04:47:13.749Z,6.23
2019-06-27T04:49:42.454Z,5.53
2019-06-27T04:52:11.152Z,5.13
2019-06-27T04:54:39.837Z,5.17
2019-06-27T04:57:08.572Z,6.27
2019-06-27T04:59:52.333Z,5.07
2019-06-27T05:02:07.937Z,5.03
2019-06-27T05:04:36.621Z,5.60
2019-06-27T05:07:05.468Z,6.17
2019-06-27T05:09:34.191Z,5.00
2019-06-27T05:12:02.951Z,5.90
2019-06-27T05:14:32.630Z,6.40
2019-06-27T05:17:01.639Z,6.27
2019-06-27T05:19:30.582Z,6.33
2019-06-27T05:21:59.345Z,7.07
2019-06-27T05:24:28.334Z,6.10
2019-06-27T05:26:57.315Z,6.07
2019-06-27T05:29:26.510Z,7.20
2019-06-27T05:31:55.495Z,5.93
2019-06-27T05:34:24.501Z,5.80
2019-06-27T05:36:53.263Z,6.70
2019-06-27T05:39:22.222Z,5.50
2019-06-27T05:41:51.002Z,5.80
2019-06-27T05:44:19.727Z,5.93
2019-06-27T05:46:48.430Z,6.10
2019-06-27T05:49:17.263Z,6.53
2019-06-27T05:51:45.957Z,4.80
2019-06-27T05:54:14.711Z,5.60
2019-06-27T05:56:43.636Z,6.83
2019-06-27T05:59:12.328Z,5.87
2019-06-27T06:01:41.039Z,5.10
2019-06-27T06:04:09.788Z,6.07
2019-06-27T06:06:38.530Z,6.60
2019-06-27T06:09:07.235Z,6.10
2019-06-27T06:11:36.001Z,6.53
2019-06-27T06:14:04.868Z,7.40
2019-06-27T06:16:33.554Z,6.93
2019-06-27T06:19:02.275Z,6.03
2019-06-27T06:21:30.981Z,5.93
2019-06-27T06:23:59.943Z,6.23
2019-06-27T06:26:28.934Z,6.33
2019-06-27T06:28:58.140Z,6.37
2019-06-27T06:31:26.944Z,6.67
2019-06-27T06:33:55.806Z,6.57
2019-06-27T06:36:24.870Z,6.07
2019-06-27T06:38:53.693Z,6.20
2019-06-27T06:41:22.423Z,5.50
2019-06-27T06:43:51.267Z,6.50
2019-06-27T06:46:20.717Z,7.50
2019-06-27T06:48:49.566Z,5.40
2019-06-27T06:51:18.452Z,5.87
2019-06-27T06:53:47.408Z,5.97
2019-06-27T06:56:19.597Z,5.83
2019-06-27T06:58:48.830Z,5.80
2019-06-27T07:01:17.587Z,5.30
2019-06-27T07:03:46.376Z,5.57
2019-06-27T07:06:15.075Z,6.50
2019-06-27T07:09:05.653Z,7.50
2019-06-27T07:11:34.392Z,10.03
2019-06-27T07:14:03.239Z,5.43
2019-06-27T07:16:32.056Z,5.67
2019-06-27T07:19:01.740Z,5.70
2019-06-27T07:21:30.529Z,7.87
2019-06-27T07:23:59.296Z,6.13
2019-06-27T07:26:28.081Z,6.03
2019-06-27T07:28:56.816Z,6.77
2019-06-27T07:31:26.095Z,6.62
2019-06-27T07:33:54.789Z,6.90
2019-06-27T07:36:23.481Z,6.10
2019-06-27T07:38:54.602Z,5.13
2019-06-27T07:41:23.369Z,5.40
2019-06-27T07:43:52.137Z,6.33
2019-06-27T07:46:25.469Z,5.83
2019-06-27T07:48:52.110Z,5.80
2019-06-27T07:51:22.216Z,4.50
2019-06-27T07:53:51.239Z,5.47
2019-06-27T07:56:20.063Z,5.53
2019-06-27T07:58:49.248Z,6.33
2019-06-27T08:01:34.125Z,5.27
2019-06-27T08:03:48.542Z,3.63
2019-06-27T08:06:17.614Z,4.67
2019-06-27T08:08:47.366Z,5.57
2019-06-27T08:11:16.168Z,6.00
2019-06-27T08:13:44.900Z,4.93
2019-06-27T08:16:16.236Z,4.87
2019-06-27T08:18:45.106Z,4.93
2019-06-27T08:21:14.129Z,5.27
2019-06-27T08:23:42.924Z,6.33
2019-06-27T08:26:11.640Z,6.07
2019-06-27T08:28:41.088Z,5.30
2019-06-27T08:31:10.292Z,6.20
2019-06-27T08:33:40.703Z,5.70
2019-06-27T08:36:11.085Z,5.00
2019-06-27T08:38:40.141Z,6.87
2019-06-27T08:41:09.150Z,5.63
2019-06-27T08:43:38.254Z,6.23
2019-06-27T08:46:12.939Z,6.63
2019-06-27T08:48:41.819Z,6.57
2019-06-27T08:51:10.523Z,6.23
2019-06-27T08:53:48.710Z,6.73
2019-06-27T08:56:17.449Z,5.47
2019-06-27T08:58:47.692Z,7.33
2019-06-27T09:01:16.564Z,5.43
2019-06-27T09:03:45.475Z,12.73
2019-06-27T09:06:14.205Z,8.13
2019-06-27T09:08:43.373Z,7.80
2019-06-27T09:11:12.162Z,6.37
2019-06-27T09:13:40.973Z,6.43
2019-06-27T09:16:11.140Z,9.27
2019-06-27T09:18:39.946Z,7.30
2019-06-27T09:21:16.046Z,6.20
2019-06-27T09:23:48.181Z,5.67
2019-06-27T09:26:18.555Z,6.77
2019-06-27T09:28:47.425Z,4.90
2019-06-27T09:31:16.288Z,5.53
2019-06-27T09:33:48.401Z,5.47
2019-06-27T09:36:20.715Z,5.60
2019-06-27T09:38:52.678Z,6.17
2019-06-27T09:41:21.948Z,12.53
2019-06-27T09:43:52.037Z,5.67
2019-06-27T09:46:24.116Z,11.70
2019-06-27T09:48:55.254Z,6.17
2019-06-27T09:51:24.444Z,6.53
2019-06-27T09:53:53.178Z,5.90
2019-06-27T09:56:22.066Z,5.50
2019-06-27T09:58:51.973Z,6.07
2019-06-27T10:01:20.773Z,5.77
2019-06-27T10:03:49.548Z,5.07
2019-06-27T10:06:18.409Z,6.20
2019-06-27T10:11:53.493Z,4.90
2019-06-27T10:14:25.697Z,5.40
2019-06-27T10:16:54.564Z,8.13
2019-06-27T10:19:23.430Z,10.27
2019-06-27T10:21:54.298Z,5.73
2019-06-27T10:24:29.289Z,7.70
2019-06-27T10:26:58.553Z,6.20
2019-06-27T10:29:27.618Z,5.10
2019-06-27T10:31:57.986Z,8.23
2019-06-27T10:34:28.073Z,4.80
2019-06-27T10:36:56.933Z,5.10
2019-06-27T10:39:25.763Z,11.87
2019-06-27T10:41:55.109Z,4.50
2019-06-27T10:44:23.993Z,9.37
2019-06-27T10:46:52.803Z,8.23
2019-06-27T10:49:21.741Z,10.47
2019-06-27T10:51:50.567Z,6.67
2019-06-27T10:54:20.706Z,14.00
2019-06-27T10:56:49.583Z,7.27
2019-06-27T10:59:18.466Z,8.70
2019-06-27T11:01:47.365Z,8.10
2019-06-27T11:04:16.530Z,6.77
2019-06-27T11:06:45.643Z,8.80
2019-06-27T11:09:23.845Z,5.70
2019-06-27T11:11:52.907Z,5.43
2019-06-27T11:14:21.672Z,6.73
2019-06-27T11:16:52.445Z,5.73
2019-06-27T11:19:21.163Z,6.17
2019-06-27T11:21:50.017Z,5.37
2019-06-27T11:24:18.769Z,7.17
2019-06-27T11:26:47.721Z,5.77
2019-06-27T11:29:16.565Z,7.67
2019-06-27T11:31:45.331Z,6.30
2019-06-27T11:34:14.361Z,5.30
2019-06-27T11:36:46.536Z,5.30
2019-06-27T11:39:16.146Z,4.30
2019-06-27T11:41:44.851Z,7.60
2019-06-27T11:44:13.632Z,4.60
2019-06-27T11:46:42.357Z,6.27
2019-06-27T11:49:11.089Z,5.30
2019-06-27T11:51:39.931Z,6.97
2019-06-27T11:54:09.016Z,5.50
2019-06-27T11:56:37.862Z,5.87
2019-06-27T11:59:06.959Z,6.13
2019-06-27T12:01:35.993Z,6.93
2019-06-27T12:04:05.039Z,7.40
2019-06-27T12:06:33.823Z,6.40
2019-06-27T12:09:04.927Z,10.30
2019-06-27T12:11:33.780Z,9.77
2019-06-27T12:14:02.708Z,6.07
2019-06-27T12:16:32.713Z,5.87
2019-06-27T12:19:01.485Z,7.43
2019-06-27T12:21:30.605Z,7.50
2019-06-27T12:23:59.687Z,6.00
2019-06-27T12:26:28.581Z,6.47
2019-06-27T12:28:58.032Z,7.20
2019-06-27T12:31:27.241Z,5.83
2019-06-27T12:34:06.378Z,6.50
2019-06-27T12:36:26.836Z,5.90
2019-06-27T12:38:55.580Z,7.33
2019-06-27T12:41:24.406Z,5.60
2019-06-27T12:43:53.192Z,5.50
2019-06-27T12:46:21.982Z,8.30
2019-06-27T12:48:50.746Z,10.53
2019-06-27T12:51:19.608Z,8.17
2019-06-27T12:53:49.721Z,7.13
2019-06-27T12:56:18.552Z,6.23
2019-06-27T12:58:47.599Z,6.50
2019-06-27T13:01:16.832Z,6.13
2019-06-27T13:03:45.898Z,6.13
2019-06-27T13:06:14.704Z,9.00
2019-06-27T13:08:44.156Z,6.50
2019-06-27T13:11:14.557Z,5.50
2019-06-27T13:13:43.260Z,6.87
2019-06-27T13:16:12.296Z,5.80
2019-06-27T13:18:46.992Z,6.60
2019-06-27T13:21:21.255Z,5.63
2019-06-27T13:23:50.301Z,6.20
2019-06-27T13:26:28.570Z,6.70
2019-06-27T13:29:00.498Z,6.67
2019-06-27T13:31:29.777Z,8.40
2019-06-27T13:33:58.552Z,6.40
2019-06-27T13:36:27.731Z,8.57
2019-06-27T13:38:56.515Z,7.83
2019-06-27T13:41:31.566Z,6.20
2019-06-27T13:44:00.496Z,6.90
2019-06-27T13:46:29.316Z,6.80
2019-06-27T13:48:58.084Z,6.80
2019-06-27T13:51:26.835Z,6.70
2019-06-27T13:53:55.819Z,6.75
2019-06-27T13:56:25.102Z,6.62
2019-06-27T13:58:54.052Z,6.30
2019-06-27T14:01:22.948Z,7.08
2019-06-27T14:03:51.818Z,10.28
2019-06-27T14:06:20.580Z,8.68
2019-06-27T14:08:49.712Z,6.53
2019-06-27T14:11:32.465Z,7.33
2019-06-27T14:14:11.359Z,6.03
2019-06-27T14:16:38.592Z,7.50
2019-06-27T14:19:07.368Z,9.63
2019-06-27T14:21:44.443Z,7.40
2019-06-27T14:24:17.382Z,6.60
2019-06-27T14:26:44.922Z,6.72
2019-06-27T14:29:14.661Z,7.65
2019-06-27T14:31:43.352Z,6.25
2019-06-27T14:34:12.311Z,7.30
2019-06-27T14:36:42.086Z,7.80
2019-06-27T14:39:10.837Z,7.30
2019-06-27T14:41:43.240Z,6.30
2019-06-27T14:44:12.341Z,5.63
2019-06-27T14:46:41.205Z,5.62
2019-06-27T14:49:10.009Z,6.60
2019-06-27T14:51:38.746Z,6.00
2019-06-27T14:54:07.647Z,5.90
2019-06-27T14:56:36.356Z,5.90
2019-06-27T14:59:05.468Z,5.00
2019-06-27T15:01:34.328Z,4.80
2019-06-27T15:04:06.002Z,5.87
2019-06-27T15:06:34.793Z,5.08
2019-06-27T15:09:03.729Z,5.03
2019-06-27T15:11:32.421Z,5.50
2019-06-27T15:14:01.213Z,4.50
2019-06-27T15:16:29.891Z,5.60
2019-06-27T15:18:58.602Z,5.07
2019-06-27T15:21:27.348Z,5.13
2019-06-27T15:23:56.082Z,4.53
2019-06-27T15:26:24.823Z,4.27
2019-06-27T15:28:53.498Z,4.13
2019-06-27T15:31:22.608Z,4.30
2019-06-27T15:33:51.331Z,4.50
2019-06-27T15:36:20.149Z,4.80
2019-06-27T15:38:48.969Z,4.33
2019-06-27T15:41:17.639Z,4.12
2019-06-27T15:43:46.486Z,4.05
2019-06-27T15:46:15.090Z,4.65
2019-06-27T15:48:44.132Z,4.90
2019-06-27T15:51:12.898Z,4.17
2019-06-27T15:53:41.601Z,4.00
2019-06-27T15:56:10.577Z,4.00
2019-06-27T15:58:39.319Z,4.47
2019-06-27T16:01:08.070Z,3.55
2019-06-27T16:03:36.723Z,4.37
2019-06-27T16:06:09.691Z,4.55
2019-06-27T16:08:35.895Z,3.60
2019-06-27T16:11:04.932Z,4.67
2019-06-27T16:13:33.912Z,4.20
2019-06-27T16:16:02.672Z,4.53
2019-06-27T16:18:31.406Z,4.10
2019-06-27T16:21:00.169Z,4.07
2019-06-27T16:23:28.948Z,4.77
2019-06-27T16:25:57.830Z,5.00
2019-06-27T16:28:27.306Z,4.57
2019-06-27T16:30:56.365Z,5.07
2019-06-27T16:33:25.208Z,4.80
2019-06-27T16:35:53.984Z,4.20
2019-06-27T16:38:22.808Z,5.83
2019-06-27T16:40:51.526Z,5.17
2019-06-27T16:43:20.503Z,5.47
2019-06-27T16:45:49.260Z,4.80
2019-06-27T16:48:18.200Z,4.70
2019-06-27T16:50:46.973Z,4.83
2019-06-27T16:53:16.008Z,5.00
2019-06-27T16:55:44.781Z,4.70
2019-06-27T16:58:13.543Z,4.67
2019-06-27T17:00:42.979Z,4.90
2019-06-27T17:03:11.767Z,5.07
2019-06-27T17:05:40.829Z,5.10
2019-06-27T17:08:09.875Z,4.33
2019-06-27T17:10:38.643Z,4.37
2019-06-27T17:13:07.518Z,5.07
2019-06-27T17:15:36.277Z,3.70
2019-06-27T17:18:05.051Z,4.73
2019-06-27T17:20:33.821Z,3.87
2019-06-27T17:23:05.415Z,3.60
2019-06-27T17:25:33.100Z,3.90
2019-06-27T17:28:02.063Z,4.17
2019-06-27T17:30:30.815Z,3.80
2019-06-27T17:33:02.527Z,4.20
2019-06-27T17:35:31.485Z,3.67
2019-06-27T17:38:00.173Z,4.03
2019-06-27T17:40:28.921Z,3.40
2019-06-27T17:42:57.859Z,3.13
2019-06-27T17:45:26.784Z,3.33
2019-06-27T17:47:56.083Z,4.17
2019-06-27T17:50:25.141Z,2.73
2019-06-27T17:52:54.398Z,3.87
2019-06-27T17:55:23.416Z,3.40
2019-06-27T17:57:52.415Z,3.53
2019-06-27T18:00:21.496Z,3.00
2019-06-27T18:02:50.494Z,3.70
2019-06-27T18:05:21.272Z,3.33
2019-06-27T18:07:50.003Z,2.90
2019-06-27T18:10:19.606Z,2.73
2019-06-27T18:12:48.427Z,3.10
2019-06-27T18:15:17.124Z,3.27
2019-06-27T18:17:46.113Z,3.53
2019-06-27T18:20:14.947Z,3.30
2019-06-27T18:22:43.718Z,4.60
2019-06-27T18:25:12.565Z,4.50
2019-06-27T18:27:41.366Z,3.73
2019-06-27T18:30:10.523Z,3.70
2019-06-27T18:32:39.553Z,5.07
2019-06-27T18:35:08.869Z,4.33
2019-06-27T18:37:37.656Z,4.13
2019-06-27T18:40:07.044Z,3.97
2019-06-27T18:42:36.132Z,3.73
2019-06-27T18:45:05.258Z,4.37
2019-06-27T18:47:34.008Z,3.43
2019-06-27T18:50:02.710Z,4.20
2019-06-27T18:52:31.741Z,4.40
2019-06-27T18:55:00.788Z,3.70
2019-06-27T18:57:29.542Z,3.83
2019-06-27T18:59:58.313Z,4.07
2019-06-27T19:02:27.006Z,4.40
2019-06-27T19:04:56.078Z,3.60
2019-06-27T19:07:25.255Z,4.57
2019-06-27T19:09:53.957Z,5.30
2019-06-27T19:12:22.642Z,4.27
2019-06-27T19:14:52.168Z,5.30
2019-06-27T19:17:20.836Z,4.33
2019-06-27T19:19:52.440Z,4.63
2019-06-27T19:22:43.631Z,4.43
2019-06-27T19:25:18.592Z,4.93
2019-06-27T19:27:47.278Z,4.70
2019-06-27T19:30:16.363Z,6.70
2019-06-27T19:32:45.420Z,7.50
2019-06-27T19:35:14.305Z,6.60
2019-06-27T19:37:43.312Z,6.20
2019-06-27T19:40:12.935Z,7.63
2019-06-27T19:42:41.782Z,7.33
2019-06-27T19:45:10.703Z,7.87
2019-06-27T19:47:39.474Z,6.47
2019-06-27T19:50:08.348Z,7.77
2019-06-27T19:52:37.319Z,7.97
2019-06-27T19:55:06.345Z,8.20
2019-06-27T19:57:35.245Z,7.33
2019-06-27T20:00:04.398Z,6.83
2019-06-27T20:02:33.489Z,7.47
2019-06-27T20:05:02.284Z,7.70
2019-06-27T20:07:31.007Z,8.40
2019-06-27T20:09:59.771Z,6.63
2019-06-27T20:12:28.847Z,8.30
2019-06-27T20:14:57.520Z,6.80
2019-06-27T20:17:26.194Z,8.60
2019-06-27T20:19:54.962Z,8.20
2019-06-27T20:22:23.678Z,9.10
2019-06-27T20:24:52.690Z,8.57
2019-06-27T20:27:21.476Z,8.83
2019-06-27T20:29:50.401Z,9.47
2019-06-27T20:32:19.069Z,9.90
2019-06-27T20:34:47.884Z,9.87
2019-06-27T20:37:16.589Z,8.77
2019-06-27T20:39:45.403Z,10.40
2019-06-27T20:42:17.542Z,6.77
2019-06-27T20:44:46.309Z,8.03
2019-06-27T20:47:17.944Z,8.60
2019-06-27T20:49:47.093Z,9.43
2019-06-27T20:52:15.861Z,8.20
2019-06-27T20:54:44.563Z,8.90
2019-06-27T20:57:13.570Z,9.70
2019-06-27T20:59:42.521Z,8.73
2019-06-27T21:02:11.290Z,9.50
2019-06-27T21:04:40.051Z,9.40
2019-06-27T21:07:09.938Z,9.77
2019-06-27T21:09:39.109Z,9.13
2019-06-27T21:12:07.912Z,10.33
2019-06-27T21:14:36.706Z,9.73
2019-06-27T21:17:05.552Z,10.10
2019-06-27T21:19:34.326Z,9.90
2019-06-27T21:22:03.524Z,10.50
2019-06-27T21:24:32.605Z,10.43
2019-06-27T21:27:01.717Z,9.90
2019-06-27T21:29:30.709Z,10.80
2019-06-27T21:32:02.721Z,10.80
2019-06-27T21:34:32.262Z,10.50
2019-06-27T21:37:00.946Z,10.67
2019-06-27T21:39:29.730Z,10.87
2019-06-27T21:41:58.724Z,10.30
2019-06-27T21:44:27.520Z,10.00
2019-06-27T21:46:56.226Z,11.50
2019-06-27T21:49:26.522Z,11.10
2019-06-27T21:51:55.617Z,9.97
2019-06-27T21:54:24.286Z,10.67
2019-06-27T21:56:53.267Z,11.90
2019-06-27T21:59:22.002Z,10.10
2019-06-27T22:01:51.030Z,9.53
2019-06-27T22:04:19.855Z,9.97
2019-06-27T22:06:48.518Z,9.87
2019-06-27T22:09:24.434Z,9.17
2019-06-27T22:11:48.192Z,9.50
2019-06-27T22:14:16.984Z,10.07
2019-06-27T22:16:45.735Z,10.10
2019-06-27T22:19:14.576Z,10.93
2019-06-27T22:21:43.255Z,9.37
2019-06-27T22:24:12.184Z,8.73
2019-06-27T22:26:41.167Z,9.43
2019-06-27T22:29:09.942Z,10.93
2019-06-27T22:31:38.703Z,10.40
2019-06-27T22:34:07.376Z,9.50
2019-06-27T22:36:36.109Z,11.10
2019-06-27T22:39:36.234Z,9.80
2019-06-27T22:42:11.165Z,11.13
2019-06-27T22:44:57.878Z,10.63
2019-06-27T22:47:44.589Z,10.77
2019-06-27T22:50:27.836Z,11.20
2019-06-27T22:53:06.099Z,11.27
2019-06-27T22:55:34.812Z,9.30
2019-06-27T22:58:03.779Z,11.57
2019-06-27T23:00:32.527Z,11.40
2019-06-27T23:03:01.557Z,8.10
2019-06-27T23:05:30.272Z,10.30
2019-06-27T23:07:59.197Z,10.47
2019-06-27T23:10:27.991Z,10.37
2019-06-27T23:12:56.669Z,10.80
2019-06-27T23:15:25.417Z,10.00
2019-06-27T23:17:54.191Z,10.27
2019-06-27T23:20:23.756Z,11.40
2019-06-27T23:22:52.613Z,10.60
2019-06-27T23:25:21.626Z,12.87
2019-06-27T23:27:50.334Z,10.80
2019-06-27T23:30:19.408Z,11.77
2019-06-27T23:32:48.211Z,11.03
2019-06-27T23:35:16.962Z,9.70
2019-06-27T23:37:45.631Z,11.40
2019-06-27T23:40:15.301Z,9.83
2019-06-27T23:42:44.356Z,11.10
2019-06-27T23:45:13.200Z,10.30
2019-06-27T23:47:41.966Z,11.40
2019-06-27T23:50:10.664Z,11.57
2019-06-27T23:52:39.687Z,11.40
2019-06-27T23:55:09.144Z,10.10
2019-06-27T23:57:37.843Z,10.30
